Time;durP1;ratioP1;P1;durP2;ratioP2;P2;SDS_P1;SDS_P2;PMS_P1;PMS_P2;Temp;Humidity;BMP_temperature;BMP_pressure;BME280_temperature;BME280_humidity;BME280_pressure;Samples;Min_cycle;Max_cycle;Signal;HPM_P1;HPM_P2
2022/12/02 00:00:49;;;;;;;;;;;;;;;20.89;48.19;102248.34;5047229;28;4126;-59
2022/12/02 00:03:17;;;;;;;;;;;;;;;20.91;48.04;102256.34;5042247;28;4123;-59
2022/12/02 00:05:43;;;;;;;;;;;;;;;20.92;47.97;102247.09;5043033;28;4141;-59
2022/12/02 00:08:13;;;;;;;;;;;;;;;20.93;48.21;102251.47;5048410;28;4170;-57
2022/12/02 00:10:39;;;;;;;;;;;;;;;20.93;48.11;102248.59;5044108;28;4188;-59
2022/12/02 00:13:17;;;;;;;;;;;;;;;20.94;48.36;102246.50;5040563;28;5235;-59
2022/12/02 00:15:43;;;;;;;;;;;;;;;20.95;48.17;102247.25;5036421;28;5276;-59
2022/12/02 00:18:10;;;;;;;;;;;;;;;20.95;48.22;102238.59;5047329;28;4686;-59
2022/12/02 00:20:36;;;;;;;;;;;;;;;20.94;48.45;102240.75;5043753;28;4080;-59
2022/12/02 00:23:03;;;;;;;;;;;;;;;20.93;48.33;102242.84;5047454;28;4166;-59
2022/12/02 00:25:29;;;;;;;;;;;;;;;20.93;48.42;102237.06;5046958;28;4196;-59
2022/12/02 00:27:56;;;;;;;;;;;;;;;20.93;48.20;102244.97;5042980;28;4529;-57
2022/12/02 00:30:22;;;;;;;;;;;;;;;20.93;48.33;102242.09;5045460;28;4162;-57
2022/12/02 00:32:48;;;;;;;;;;;;;;;20.91;48.45;102239.84;5036501;28;5190;-57
2022/12/02 00:35:15;;;;;;;;;;;;;;;20.91;48.22;102239.84;5039204;28;4555;-57
2022/12/02 00:37:41;;;;;;;;;;;;;;;20.89;48.54;102236.84;5033121;28;4223;-57
2022/12/02 00:40:08;;;;;;;;;;;;;;;20.90;48.37;102237.59;5044459;28;4248;-57
2022/12/02 00:42:34;;;;;;;;;;;;;;;20.90;48.36;102232.56;5053154;28;5214;-57
2022/12/02 00:47:47;;;;;;;;;;;;;;;20.90;48.45;102226.81;5035698;28;4245;-57
2022/12/02 00:50:14;;;;;;;;;;;;;;;20.91;48.57;102225.44;5050437;28;4337;-57
2022/12/02 00:52:40;;;;;;;;;;;;;;;20.93;48.60;102225.56;5053932;28;4127;-57
2022/12/02 00:55:07;;;;;;;;;;;;;;;20.91;48.39;102219.69;5046391;28;4254;-56
2022/12/02 00:57:33;;;;;;;;;;;;;;;20.95;48.36;102215.56;5050655;28;5247;-56
2022/12/02 01:00:00;;;;;;;;;;;;;;;20.93;48.32;102225.56;5043748;28;4490;-57
2022/12/02 01:02:26;;;;;;;;;;;;;;;20.92;48.40;102218.31;5036017;28;5474;-57
2022/12/02 01:04:52;;;;;;;;;;;;;;;20.91;48.75;102228.34;5043660;28;4182;-57
2022/12/02 01:07:19;;;;;;;;;;;;;;;20.91;48.80;102221.81;5037372;28;4014;-57
2022/12/02 01:09:45;;;;;;;;;;;;;;;20.91;48.37;102222.56;5046189;28;4221;-57
2022/12/02 01:12:12;;;;;;;;;;;;;;;20.90;48.85;102223.94;5050612;28;4578;-57
2022/12/02 01:14:39;;;;;;;;;;;;;;;20.88;48.75;102235.31;5042293;28;4185;-57
2022/12/02 01:17:05;;;;;;;;;;;;;;;20.88;48.59;102223.78;5041780;28;4157;-57
2022/12/02 01:19:31;;;;;;;;;;;;;;;20.87;48.59;102225.19;5037758;28;4037;-57
2022/12/02 01:21:58;;;;;;;;;;;;;;;20.87;48.57;102218.69;5039625;28;4092;-57
2022/12/02 01:24:24;;;;;;;;;;;;;;;20.88;48.67;102218.03;5034805;28;5239;-57
2022/12/02 01:26:50;;;;;;;;;;;;;;;20.87;48.78;102221.56;5035695;28;4125;-57
2022/12/02 01:29:17;;;;;;;;;;;;;;;20.88;48.69;102223.78;5039563;28;4042;-57
2022/12/02 01:31:43;;;;;;;;;;;;;;;20.89;48.78;102225.31;5025268;28;4031;-57
2022/12/02 01:34:10;;;;;;;;;;;;;;;20.89;48.68;102210.91;5045710;28;4099;-57
2022/12/02 01:36:36;;;;;;;;;;;;;;;20.90;48.44;102214.53;5047751;28;5015;-57
2022/12/02 01:39:02;;;;;;;;;;;;;;;20.91;48.49;102216.81;5053383;28;4067;-57
2022/12/02 01:41:29;;;;;;;;;;;;;;;20.89;48.78;102216.69;5055266;28;4031;-57
2022/12/02 01:43:55;;;;;;;;;;;;;;;20.88;48.93;102223.78;5048479;28;4534;-56
2022/12/02 01:46:22;;;;;;;;;;;;;;;20.90;48.74;102220.31;5043363;28;4177;-57
2022/12/02 01:48:49;;;;;;;;;;;;;;;20.89;48.86;102218.78;5049594;28;4134;-57
2022/12/02 01:51:15;;;;;;;;;;;;;;;20.87;48.82;102210.03;5045961;28;5213;-57
2022/12/02 01:53:44;;;;;;;;;;;;;;;20.86;48.71;102215.03;5047717;28;4112;-57
2022/12/02 01:56:11;;;;;;;;;;;;;;;20.86;48.67;102209.25;5036587;28;4088;-57
2022/12/02 01:58:37;;;;;;;;;;;;;;;20.85;48.91;102209.91;5048521;28;5275;-57
2022/12/02 02:01:20;;;;;;;;;;;;;;;20.85;48.65;102209.91;5044167;28;4212;-57
2022/12/02 02:03:46;;;;;;;;;;;;;;;20.85;48.52;102202.00;5050572;28;4113;-57
2022/12/02 02:06:12;;;;;;;;;;;;;;;20.86;48.94;102203.50;5023625;28;4375;-57
2022/12/02 02:08:39;;;;;;;;;;;;;;;20.86;48.68;102209.25;5042268;28;4176;-57
2022/12/02 02:11:06;;;;;;;;;;;;;;;20.87;48.89;102210.03;5046430;28;4259;-57
2022/12/02 02:13:32;;;;;;;;;;;;;;;20.87;48.61;102205.03;5048534;28;5323;-57
2022/12/02 02:15:58;;;;;;;;;;;;;;;20.89;48.68;102202.28;5051461;28;4235;-57
2022/12/02 02:18:25;;;;;;;;;;;;;;;20.89;48.78;102196.53;5049352;28;4194;-57
2022/12/02 02:20:51;;;;;;;;;;;;;;;20.90;48.87;102203.03;5037578;28;4528;-57
2022/12/02 02:23:18;;;;;;;;;;;;;;;20.88;48.85;102202.91;5037999;28;5448;-57
2022/12/02 02:25:45;;;;;;;;;;;;;;;20.87;49.00;102199.25;5040969;28;4416;-57
2022/12/02 02:28:13;;;;;;;;;;;;;;;20.86;48.92;102197.75;5030845;28;4156;-57
2022/12/02 02:30:39;;;;;;;;;;;;;;;20.87;48.94;102204.28;5037933;28;4056;-57
2022/12/02 02:33:06;;;;;;;;;;;;;;;20.85;48.84;102198.38;5035347;28;4158;-57
2022/12/02 02:35:33;;;;;;;;;;;;;;;20.84;49.07;102206.25;5056485;28;4171;-57
2022/12/02 02:38:00;;;;;;;;;;;;;;;20.83;48.91;102204.75;5046107;28;4352;-57
2022/12/02 02:40:27;;;;;;;;;;;;;;;20.84;48.85;102203.38;5026821;28;4207;-56
2022/12/02 02:42:55;;;;;;;;;;;;;;;20.83;48.89;102204.75;5034278;28;4109;-57
2022/12/02 02:45:21;;;;;;;;;;;;;;;20.82;48.74;102191.75;5045722;28;5111;-57
2022/12/02 02:47:48;;;;;;;;;;;;;;;20.82;48.82;102203.25;5027944;28;4134;-57
2022/12/02 02:50:15;;;;;;;;;;;;;;;20.85;48.95;102195.50;5030332;28;4090;-57
2022/12/02 02:52:41;;;;;;;;;;;;;;;20.85;48.93;102199.13;5043435;28;5426;-57
2022/12/02 02:55:08;;;;;;;;;;;;;;;20.85;48.92;102196.25;5046390;28;4157;-57
2022/12/02 02:57:34;;;;;;;;;;;;;;;20.85;48.95;102193.38;5019949;28;4216;-57
2022/12/02 03:00:01;;;;;;;;;;;;;;;20.85;48.75;102186.88;5043443;28;5459;-57
2022/12/02 03:02:27;;;;;;;;;;;;;;;20.85;48.79;102207.03;5055960;28;4182;-57
2022/12/02 03:04:54;;;;;;;;;;;;;;;20.85;48.95;102195.50;5031469;28;4159;-57
2022/12/02 03:07:22;;;;;;;;;;;;;;;20.83;48.91;102190.34;5037365;28;4263;-57
2022/12/02 03:09:48;;;;;;;;;;;;;;;20.84;48.95;102188.97;5029891;28;6737;-58
2022/12/02 03:12:15;;;;;;;;;;;;;;;20.84;49.03;102199.75;5048753;28;4185;-57
2022/12/02 03:14:41;;;;;;;;;;;;;;;20.82;48.87;102196.72;5045418;28;4142;-57
2022/12/02 03:17:08;;;;;;;;;;;;;;;20.81;48.80;102190.22;5046692;28;4165;-57
2022/12/02 03:19:34;;;;;;;;;;;;;;;20.80;48.91;102188.72;5045197;28;3992;-57
2022/12/02 03:22:00;;;;;;;;;;;;;;;20.80;49.02;102187.94;5046500;28;5346;-57
2022/12/02 03:24:27;;;;;;;;;;;;;;;20.79;48.70;102195.84;5044672;28;5421;-57
2022/12/02 03:26:53;;;;;;;;;;;;;;;20.80;48.74;102191.59;5047015;28;4206;-57
2022/12/02 03:29:19;;;;;;;;;;;;;;;20.80;48.88;102188.72;5046650;28;4159;-57
2022/12/02 03:31:46;;;;;;;;;;;;;;;20.81;49.02;102184.47;5048128;28;4089;-57
2022/12/02 03:34:12;;;;;;;;;;;;;;;20.81;48.77;102178.72;5045185;28;4390;-57
2022/12/02 03:36:38;;;;;;;;;;;;;;;20.83;48.73;102187.47;5045200;28;4159;-57
2022/12/02 03:39:05;;;;;;;;;;;;;;;20.84;48.75;102182.47;5042893;28;4302;-58
2022/12/02 03:41:31;;;;;;;;;;;;;;;20.85;48.66;102181.84;5047498;28;4195;-57
2022/12/02 03:43:57;;;;;;;;;;;;;;;20.87;48.97;102182.00;5046744;28;4034;-57
2022/12/02 03:46:24;;;;;;;;;;;;;;;20.88;48.77;102176.97;5047746;28;4112;-57
2022/12/02 03:48:50;;;;;;;;;;;;;;;20.88;48.90;102183.47;5047474;28;4224;-57
2022/12/02 03:51:16;;;;;;;;;;;;;;;20.88;48.62;102180.59;5047033;28;4016;-57
2022/12/02 03:53:43;;;;;;;;;;;;;;;20.91;48.55;102181.50;5049992;28;4141;-57
2022/12/02 03:56:09;;;;;;;;;;;;;;;20.92;48.92;102166.47;5049602;28;4000;-57
2022/12/02 03:58:46;;;;;;;;;;;;;;;20.91;49.09;102170.75;5050576;28;4197;-57
2022/12/02 04:01:12;;;;;;;;;;;;;;;20.91;49.10;102170.75;5053386;28;4176;-57
2022/12/02 04:03:38;;;;;;;;;;;;;;;20.91;49.25;102170.75;5055486;28;5396;-58
2022/12/02 04:06:05;;;;;;;;;;;;;;;20.92;49.12;102166.47;5054244;28;4439;-57
2022/12/02 04:08:31;;;;;;;;;;;;;;;20.90;49.23;102163.47;5052017;28;4253;-57
2022/12/02 04:10:57;;;;;;;;;;;;;;;20.91;49.25;102164.97;5055917;28;4096;-57
2022/12/02 04:13:24;;;;;;;;;;;;;;;20.90;49.36;102160.59;5053471;28;5213;-58
2022/12/02 04:15:51;;;;;;;;;;;;;;;20.90;49.10;102163.47;5037787;28;4235;-58
2022/12/02 04:18:17;;;;;;;;;;;;;;;20.89;49.15;102161.97;5056921;28;4335;-58
2022/12/02 04:20:43;;;;;;;;;;;;;;;20.89;49.21;102164.06;5054441;28;5207;-58
2022/12/02 04:23:10;;;;;;;;;;;;;;;20.89;49.19;102161.97;5043444;28;4139;-57
2022/12/02 04:25:36;;;;;;;;;;;;;;;20.89;49.06;102173.50;5033384;28;5408;-57
2022/12/02 04:28:02;;;;;;;;;;;;;;;20.88;49.24;102168.34;5036617;28;5226;-58
2022/12/02 04:30:29;;;;;;;;;;;;;;;20.88;49.01;102166.22;5046485;28;4146;-57
2022/12/02 04:32:55;;;;;;;;;;;;;;;20.87;49.21;102164.72;5036421;28;5433;-57
2022/12/02 04:35:22;;;;;;;;;;;;;;;20.87;49.32;102164.72;5040621;28;4095;-58
2022/12/02 04:37:50;;;;;;;;;;;;;;;20.86;49.15;102163.19;5033532;28;5077;-58
2022/12/02 04:40:17;;;;;;;;;;;;;;;20.86;49.06;102150.94;5045780;28;4205;-58
2022/12/02 04:42:43;;;;;;;;;;;;;;;20.87;48.90;102158.22;5044813;28;4147;-58
2022/12/02 04:45:09;;;;;;;;;;;;;;;20.89;48.91;102161.19;5051696;28;4251;-57
2022/12/02 04:47:36;;;;;;;;;;;;;;;20.89;48.90;102161.97;5045248;28;4112;-57
2022/12/02 04:50:03;;;;;;;;;;;;;;;20.90;48.92;102156.97;5035509;28;4327;-57
2022/12/02 04:52:30;;;;;;;;;;;;;;;20.92;48.95;102154.97;5047528;28;5416;-58
2022/12/02 04:54:56;;;;;;;;;;;;;;;20.92;49.09;102159.97;5044886;28;4051;-57
2022/12/02 04:57:22;;;;;;;;;;;;;;;20.92;49.01;102159.97;5048297;28;5154;-57
2022/12/02 04:59:56;;;;;;;;;;;;;;;20.92;49.17;102154.97;5043250;28;4037;-58
2022/12/02 05:02:22;;;;;;;;;;;;;;;20.92;49.17;102149.19;5041034;28;4178;-57
2022/12/02 05:04:49;;;;;;;;;;;;;;;20.93;49.23;102147.06;5042942;28;4139;-57
2022/12/02 05:07:16;;;;;;;;;;;;;;;20.92;49.10;102146.31;5037228;28;4231;-58
2022/12/02 05:09:42;;;;;;;;;;;;;;;20.91;49.36;102147.72;5038493;28;3950;-58
2022/12/02 05:12:08;;;;;;;;;;;;;;;20.91;49.12;102146.94;5031346;28;4168;-58
2022/12/02 05:14:35;;;;;;;;;;;;;;;20.91;49.24;102147.72;5038875;28;5023;-58
2022/12/02 05:17:01;;;;;;;;;;;;;;;20.89;49.33;102144.69;5038666;28;4094;-58
2022/12/02 05:19:27;;;;;;;;;;;;;;;20.90;49.03;102154.81;5043662;28;4285;-58
2022/12/02 05:21:54;;;;;;;;;;;;;;;20.91;49.23;102156.34;5044764;28;5192;-58
2022/12/02 05:24:20;;;;;;;;;;;;;;;20.91;49.04;102150.59;5040318;28;4191;-58
2022/12/02 05:26:46;;;;;;;;;;;;;;;20.90;49.06;102159.84;5035970;28;4201;-58
2022/12/02 05:29:13;;;;;;;;;;;;;;;20.90;49.19;102156.97;5037019;28;3974;-58
2022/12/02 05:31:39;;;;;;;;;;;;;;;20.88;49.02;102148.94;5037111;28;4227;-58
2022/12/02 05:34:06;;;;;;;;;;;;;;;20.88;49.03;102151.81;5044478;28;4191;-58
2022/12/02 05:36:32;;;;;;;;;;;;;;;20.87;49.32;102156.06;5035168;28;5613;-58
2022/12/02 05:38:58;;;;;;;;;;;;;;;20.89;49.25;102155.44;5042081;28;4112;-58
2022/12/02 05:41:25;;;;;;;;;;;;;;;20.89;49.06;102149.69;5042774;28;5207;-57
2022/12/02 05:43:53;;;;;;;;;;;;;;;20.89;49.20;102155.44;5038460;28;4081;-58
2022/12/02 05:46:19;;;;;;;;;;;;;;;20.89;49.20;102144.69;5034634;28;4318;-58
2022/12/02 05:48:47;;;;;;;;;;;;;;;20.90;48.97;102149.06;5034404;28;4123;-58
2022/12/02 05:51:20;;;;;;;;;;;;;;;20.92;48.92;102154.97;5035376;28;4007;-58
2022/12/02 05:53:46;;;;;;;;;;;;;;;20.92;49.16;102148.44;5036394;28;4134;-57
2022/12/02 05:56:17;;;;;;;;;;;;;;;20.91;49.26;102144.06;5034063;28;4124;-57
2022/12/02 05:58:43;;;;;;;;;;;;;;;20.91;49.26;102146.94;5041445;28;5269;-57
2022/12/02 06:01:15;;;;;;;;;;;;;;;20.91;49.27;102141.16;5033087;28;4916;-58
2022/12/02 06:03:41;;;;;;;;;;;;;;;20.91;49.14;102136.19;5031309;28;4206;-58
2022/12/02 06:06:08;;;;;;;;;;;;;;;20.95;49.13;102140.69;5032819;28;5171;-58
2022/12/02 06:08:34;;;;;;;;;;;;;;;20.93;49.05;102144.94;5029119;28;4180;-58
2022/12/02 06:11:24;;;;;;;;;;;;;;;20.93;49.51;102138.44;5033187;28;4031;-65
2022/12/02 06:13:50;;;;;;;;;;;;;;;17.24;54.40;102140.75;5022655;28;4181;-65
2022/12/02 06:16:21;;;;;;;;;;;;;;;19.57;51.04;102140.13;5044833;28;4129;-64
2022/12/02 06:18:47;;;;;;;;;;;;;;;20.33;48.78;102142.41;5038740;28;5000;-65
2022/12/02 06:21:14;;;;;;;;;;;;;;;20.65;48.93;102140.22;5036469;28;4129;-65
2022/12/02 06:23:42;;;;;;;;;;;;;;;20.73;49.56;102155.16;5037790;28;4228;-65
2022/12/02 06:26:11;;;;;;;;;;;;;;;20.91;49.94;102156.34;5042078;28;4219;-66
2022/12/02 06:28:37;;;;;;;;;;;;;;;20.98;50.48;102163.25;5033102;28;5224;-65
2022/12/02 06:31:19;;;;;;;;;;;;;;;20.99;50.27;102155.34;5023987;28;4245;-65
2022/12/02 06:33:47;;;;;;;;;;;;;;;20.97;50.43;102152.34;5038535;28;4117;-65
2022/12/02 06:36:21;;;;;;;;;;;;;;;20.98;50.23;102153.84;5043559;28;4207;-65
2022/12/02 06:38:52;;;;;;;;;;;;;;;20.96;49.99;102159.47;5040005;28;4154;-64
2022/12/02 06:41:25;;;;;;;;;;;;;;;21.04;49.97;102160.75;5038845;28;4168;-65
2022/12/02 06:46:46;;;;;;;;;;;;;;;21.00;48.77;102165.50;5047161;28;4111;-65
2022/12/02 06:49:19;;;;;;;;;;;;;;;21.02;48.38;102162.75;5038986;28;5568;-67
2022/12/02 06:51:46;;;;;;;;;;;;;;;20.94;47.64;102168.75;5046104;28;4141;-65
2022/12/02 06:54:14;;;;;;;;;;;;;;;20.99;47.54;102164.00;5040087;28;4351;-65
2022/12/02 06:56:40;;;;;;;;;;;;;;;20.40;44.08;102170.22;5042376;28;4297;-63
2022/12/02 06:59:07;;;;;;;;;;;;;;;17.43;39.12;102163.00;5040479;28;4255;-65
2022/12/02 07:01:40;;;;;;;;;;;;;;;16.96;37.68;102167.84;5043829;28;4116;-65
2022/12/02 07:04:07;;;;;;;;;;;;;;;16.89;37.87;102162.97;5040533;28;4159;-64
2022/12/02 07:06:37;;;;;;;;;;;;;;;17.56;38.06;102159.72;5031014;28;4079;-59
2022/12/02 07:09:04;;;;;;;;;;;;;;;18.81;39.01;102157.72;5039741;28;4547;-67
2022/12/02 07:11:50;;;;;;;;;;;;;;;19.58;38.21;102158.88;5041074;28;4150;-67
2022/12/02 07:14:19;;;;;;;;;;;;;;;20.04;39.34;102157.78;5034701;28;4262;-67
2022/12/02 07:16:46;;;;;;;;;;;;;;;20.29;39.20;102147.91;5044320;28;4129;-67
2022/12/02 07:19:12;;;;;;;;;;;;;;;20.45;40.23;102148.22;5049190;28;4313;-67
2022/12/02 07:21:39;;;;;;;;;;;;;;;20.55;40.89;102162.53;5047109;28;4174;-67
2022/12/02 07:24:06;;;;;;;;;;;;;;;20.61;41.50;102154.34;5046541;28;4087;-67
2022/12/02 07:26:32;;;;;;;;;;;;;;;20.67;41.69;102154.75;5050111;28;4164;-68
2022/12/02 07:28:59;;;;;;;;;;;;;;;20.74;42.94;102150.16;5052507;28;4018;-68
2022/12/02 07:31:45;;;;;;;;;;;;;;;20.72;42.96;102162.28;5051112;28;4244;-67
2022/12/02 07:34:12;;;;;;;;;;;;;;;20.78;42.72;102168.44;5050579;28;4123;-67
2022/12/02 07:36:38;;;;;;;;;;;;;;;20.78;43.11;102165.56;5045225;28;4042;-67
2022/12/02 07:39:05;;;;;;;;;;;;;;;20.79;43.42;102160.53;5040989;28;4013;-68
2022/12/02 07:41:36;;;;;;;;;;;;;;;20.79;43.90;102157.66;5046214;28;6293;-67
2022/12/02 07:44:03;;;;;;;;;;;;;;;20.80;44.22;102165.69;5044523;28;4068;-68
2022/12/02 07:46:29;;;;;;;;;;;;;;;21.12;44.38;102166.28;5034689;28;4725;-72
2022/12/02 07:48:56;;;;;;;;;;;;;;;21.25;44.52;102162.78;5041982;28;4188;-71
2022/12/02 07:51:23;;;;;;;;;;;;;;;21.30;44.30;102158.81;5040474;28;4151;-71
2022/12/02 07:53:49;;;;;;;;;;;;;;;21.32;44.47;102161.78;5044315;28;4068;-71
2022/12/02 07:56:15;;;;;;;;;;;;;;;21.40;44.32;102167.38;5049869;28;4842;-73
2022/12/02 07:58:42;;;;;;;;;;;;;;;21.36;44.35;102160.56;5053563;28;4372;-74
2022/12/02 08:01:28;;;;;;;;;;;;;;;21.38;44.51;102169.34;5055749;28;4294;-73
2022/12/02 08:03:54;;;;;;;;;;;;;;;21.42;44.56;102163.88;5049847;28;4169;-72
2022/12/02 08:06:21;;;;;;;;;;;;;;;21.66;44.20;102171.13;5049811;28;4840;-70
2022/12/02 08:08:47;;;;;;;;;;;;;;;21.74;44.12;102165.88;5047676;28;4295;-71
2022/12/02 08:11:13;;;;;;;;;;;;;;;21.84;44.15;102167.88;5051859;28;5159;-71
2022/12/02 08:13:40;;;;;;;;;;;;;;;21.88;44.41;102151.56;5047121;28;4475;-71
2022/12/02 08:16:07;;;;;;;;;;;;;;;21.90;44.23;102156.72;5051220;28;4160;-71
2022/12/02 08:18:33;;;;;;;;;;;;;;;21.87;43.89;102155.06;5057424;28;4120;-72
2022/12/02 08:21:00;;;;;;;;;;;;;;;21.58;45.00;102159.09;5053910;28;4107;-72
2022/12/02 08:23:32;;;;;;;;;;;;;;;21.52;45.27;102155.84;5053595;28;4197;-70
2022/12/02 08:25:58;;;;;;;;;;;;;;;21.54;45.33;102158.84;5054455;28;4143;-69
2022/12/02 08:28:24;;;;;;;;;;;;;;;21.58;45.10;102159.09;5055870;28;5417;-71
2022/12/02 08:30:53;;;;;;;;;;;;;;;21.67;44.81;102161.13;5054122;28;4335;-71
2022/12/02 08:33:20;;;;;;;;;;;;;;;21.69;45.12;102167.00;5049943;28;4208;-70
2022/12/02 08:35:46;;;;;;;;;;;;;;;21.70;44.95;102171.38;5049820;28;4073;-72
2022/12/02 08:38:12;;;;;;;;;;;;;;;21.65;44.96;102169.63;5051156;28;4150;-72
2022/12/02 08:40:39;;;;;;;;;;;;;;;21.60;45.20;102170.78;5044093;28;4100;-68
2022/12/02 08:43:05;;;;;;;;;;;;;;;21.51;45.58;102174.53;5047008;28;4292;-68
2022/12/02 08:45:31;;;;;;;;;;;;;;;21.64;45.24;102178.91;5036084;28;4149;-70
2022/12/02 08:47:58;;;;;;;;;;;;;;;21.62;45.62;102176.63;5044101;28;5347;-69
2022/12/02 08:50:24;;;;;;;;;;;;;;;21.58;45.40;102164.88;5045788;28;4282;-68
2022/12/02 08:52:50;;;;;;;;;;;;;;;21.61;45.54;102162.88;5048387;28;4222;-70
2022/12/02 08:55:23;;;;;;;;;;;;;;;21.67;45.18;102158.22;5048337;28;4474;-68
2022/12/02 08:57:50;;;;;;;;;;;;;;;21.72;45.45;102165.00;5051137;28;4258;-70
2022/12/02 09:00:16;;;;;;;;;;;;;;;21.64;45.62;102173.13;5048857;28;4104;-69
2022/12/02 09:02:42;;;;;;;;;;;;;;;21.58;45.79;102170.63;5040984;28;5555;-70
2022/12/02 09:05:09;;;;;;;;;;;;;;;21.60;45.50;102173.66;5042245;28;5049;-69
2022/12/02 09:07:35;;;;;;;;;;;;;;;21.63;45.75;102172.38;5045679;28;4145;-70
2022/12/02 09:10:02;;;;;;;;;;;;;;;21.67;45.40;102169.75;5035409;28;4376;-70
2022/12/02 09:12:28;;;;;;;;;;;;;;;21.48;45.71;102167.84;5044437;28;4127;-75
2022/12/02 09:14:54;;;;;;;;;;;;;;;21.43;46.18;102168.25;5052010;28;3992;-76
2022/12/02 09:17:21;;;;;;;;;;;;;;;21.33;46.66;102166.19;5038824;28;4032;-72
2022/12/02 09:19:47;;;;;;;;;;;;;;;21.52;46.44;102167.38;5050611;28;5296;-76
2022/12/02 09:22:13;;;;;;;;;;;;;;;21.61;46.13;102162.88;5049909;28;4418;-76
2022/12/02 09:24:40;;;;;;;;;;;;;;;21.56;46.32;102176.28;5042502;28;5219;-69
2022/12/02 09:27:06;;;;;;;;;;;;;;;21.34;46.55;102172.72;5033442;28;3958;-70
2022/12/02 09:29:33;;;;;;;;;;;;;;;21.36;46.42;102172.09;5043578;28;4197;-71
2022/12/02 09:32:00;;;;;;;;;;;;;;;21.37;46.38;102174.31;5037532;28;5411;-72
2022/12/02 09:34:26;;;;;;;;;;;;;;;21.32;46.32;102173.31;5041990;28;5475;-72
2022/12/02 09:36:53;;;;;;;;;;;;;;;21.30;46.26;102170.34;5037283;28;4083;-69
2022/12/02 09:39:19;;;;;;;;;;;;;;;20.70;42.74;102159.25;5036444;28;4193;-71
2022/12/02 09:41:45;;;;;;;;;;;;;;;20.38;42.25;102160.72;5047273;28;4354;-71
2022/12/02 09:44:12;;;;;;;;;;;;;;;20.80;42.10;102147.66;5046847;28;4280;-71
2022/12/02 09:46:38;;;;;;;;;;;;;;;21.02;41.89;102148.34;5048445;28;4087;-71
2022/12/02 09:49:04;;;;;;;;;;;;;;;21.12;42.69;102141.13;5050727;28;4231;-71
2022/12/02 09:51:31;;;;;;;;;;;;;;;21.17;43.24;102142.13;5048459;28;4147;-70
2022/12/02 09:53:57;;;;;;;;;;;;;;;21.18;44.43;102137.84;5048935;28;5334;-71
2022/12/02 09:56:24;;;;;;;;;;;;;;;21.19;44.88;102135.72;5053900;28;4122;-70
2022/12/02 09:58:51;;;;;;;;;;;;;;;21.19;44.56;102142.25;5053980;28;5171;-70
2022/12/02 10:01:20;;;;;;;;;;;;;;;21.19;44.91;102136.50;5055056;28;4167;-71
2022/12/02 10:03:47;;;;;;;;;;;;;;;21.21;45.04;102135.84;5054978;28;4093;-71
2022/12/02 10:06:17;;;;;;;;;;;;;;;21.25;45.22;102139.00;5053780;28;5873;-71
2022/12/02 10:08:43;;;;;;;;;;;;;;;21.24;45.33;102126.72;5054485;28;4117;-71
2022/12/02 10:11:15;;;;;;;;;;;;;;;21.24;45.39;102126.72;5051774;28;6344;-71
2022/12/02 10:13:41;;;;;;;;;;;;;;;21.25;45.36;102124.59;5054453;28;4075;-71
2022/12/02 10:16:11;;;;;;;;;;;;;;;21.26;45.45;102123.97;5051646;28;4436;-71
2022/12/02 10:18:38;;;;;;;;;;;;;;;21.27;45.58;102119.69;5052090;28;4164;-70
2022/12/02 10:21:04;;;;;;;;;;;;;;;21.27;45.61;102131.22;5054234;28;4249;-71
2022/12/02 10:23:31;;;;;;;;;;;;;;;21.25;45.67;102133.97;5055621;28;4493;-70
2022/12/02 10:26:05;;;;;;;;;;;;;;;21.24;46.06;102126.72;5055755;28;4270;-71
2022/12/02 10:28:32;;;;;;;;;;;;;;;21.22;46.17;102123.72;5050939;28;4121;-71
2022/12/02 10:31:03;;;;;;;;;;;;;;;21.22;46.28;102128.72;5054847;28;4094;-71
2022/12/02 10:33:30;;;;;;;;;;;;;;;21.14;46.09;102123.19;5053077;28;4140;-70
2022/12/02 10:35:57;;;;;;;;;;;;;;;21.19;46.31;102119.22;5055261;28;4133;-70
2022/12/02 10:38:40;;;;;;;;;;;;;;;21.19;46.22;102107.69;5053481;28;4456;-70
2022/12/02 10:41:23;;;;;;;;;;;;;;;21.18;46.35;102111.94;5056011;28;4068;-71
2022/12/02 10:43:52;;;;;;;;;;;;;;;21.15;46.38;102107.44;5056020;28;5419;-71
2022/12/02 10:46:19;;;;;;;;;;;;;;;21.13;46.31;102110.91;5056193;28;5230;-71
2022/12/02 10:48:45;;;;;;;;;;;;;;;21.13;46.44;102113.06;5057982;28;5654;-71
2022/12/02 10:51:12;;;;;;;;;;;;;;;21.13;46.41;102110.91;5054493;28;4165;-71
2022/12/02 10:53:39;;;;;;;;;;;;;;;21.14;46.36;102094.38;5045341;28;4161;-71
2022/12/02 10:56:05;;;;;;;;;;;;;;;21.13;46.44;102093.63;5043939;28;4156;-71
2022/12/02 10:58:31;;;;;;;;;;;;;;;21.17;46.35;102110.44;5041665;28;5280;-71
2022/12/02 11:00:58;;;;;;;;;;;;;;;21.18;46.27;102100.41;5036920;28;4506;-71
2022/12/02 11:03:24;;;;;;;;;;;;;;;21.19;46.23;102099.03;5040500;28;4176;-70
2022/12/02 11:05:51;;;;;;;;;;;;;;;20.48;41.81;102103.84;5035719;28;4030;-79
2022/12/02 11:08:27;;;;;;;;;;;;;;;19.62;42.24;102106.69;5034509;28;4106;-70
2022/12/02 11:11:12;;;;;;;;;;;;;;;20.55;44.52;102093.47;5042252;28;4118;-72
2022/12/02 11:13:52;;;;;;;;;;;;;;;21.09;44.32;102099.13;5034059;28;4650;-70
2022/12/02 11:16:40;;;;;;;;;;;;;;;21.55;43.72;102096.94;5047564;28;5183;-71
2022/12/02 11:19:22;;;;;;;;;;;;;;;21.74;43.45;102093.78;5043303;28;4170;-70
2022/12/02 11:21:49;;;;;;;;;;;;;;;21.68;43.66;102087.66;5040729;28;4139;-74
2022/12/02 11:24:21;;;;;;;;;;;;;;;21.53;44.15;102088.16;5048125;28;4257;-79
2022/12/02 11:27:03;;;;;;;;;;;;;;;21.58;43.23;102084.16;5038734;28;4126;-72
2022/12/02 11:29:33;;;;;;;;;;;;;;;21.80;42.83;102078.22;5042620;28;4106;-72
2022/12/02 11:32:01;;;;;;;;;;;;;;;21.91;43.24;102074.56;5045918;28;4289;-70
2022/12/02 11:34:40;;;;;;;;;;;;;;;21.98;43.25;102076.44;5039305;28;4273;-72
2022/12/02 11:37:27;;;;;;;;;;;;;;;21.42;41.62;102077.41;5039255;28;4239;-69
2022/12/02 11:39:57;;;;;;;;;;;;;;;21.48;42.43;102077.78;5038411;28;4122;-77
2022/12/02 11:42:24;;;;;;;;;;;;;;;21.84;42.54;102069.84;5040434;28;4039;-78
2022/12/02 11:44:50;;;;;;;;;;;;;;;22.02;43.35;102073.78;5038063;28;4067;-81
2022/12/02 11:47:37;;;;;;;;;;;;;;;22.09;43.64;102069.13;5038405;28;4587;-80
2022/12/02 11:50:13;;;;;;;;;;;;;;;22.29;43.54;102066.72;5042951;28;5107;-79
2022/12/02 11:52:39;;;;;;;;;;;;;;;22.41;43.06;102055.84;5048608;28;4517;-78
2022/12/02 11:55:09;;;;;;;;;;;;;;;22.46;43.19;102063.34;5048541;28;4004;-77
2022/12/02 11:57:51;;;;;;;;;;;;;;;22.33;43.59;102061.16;5035111;28;4222;-83
2022/12/02 12:00:20;;;;;;;;;;;;;;;22.24;44.20;102062.84;5039307;28;4072;-83
2022/12/02 12:02:47;;;;;;;;;;;;;;;22.25;44.50;102057.81;5045083;28;4247;-80
2022/12/02 12:05:13;;;;;;;;;;;;;;;22.48;44.15;102066.34;5043465;28;4169;-78
2022/12/02 12:07:40;;;;;;;;;;;;;;;22.58;43.58;102064.03;5040009;28;4151;-79
2022/12/02 12:10:22;;;;;;;;;;;;;;;22.68;43.72;102071.78;5042796;28;4181;-80
2022/12/02 12:13:06;;;;;;;;;;;;;;;22.76;43.44;102066.44;5046178;28;4112;-76
2022/12/02 12:15:49;;;;;;;;;;;;;;;22.62;43.87;102063.53;5043181;28;4407;-78
2022/12/02 12:18:34;;;;;;;;;;;;;;;22.71;43.83;102070.50;5042528;28;4501;-78
2022/12/02 12:21:01;;;;;;;;;;;;;;;17.96;41.27;102063.22;5046359;28;5267;-82
2022/12/02 12:23:28;;;;;;;;;;;;;;;20.11;41.68;102066.16;5041851;28;4147;-74
2022/12/02 12:25:54;;;;;;;;;;;;;;;21.40;41.63;102057.09;5039353;28;4110;-77
2022/12/02 12:28:33;;;;;;;;;;;;;;;21.93;41.57;102061.03;5045715;28;4480;-78
2022/12/02 12:31:00;;;;;;;;;;;;;;;22.09;41.88;102058.34;5042670;28;4134;-82
2022/12/02 12:33:26;;;;;;;;;;;;;;;22.17;42.16;102061.72;5040694;28;4383;-80
2022/12/02 12:35:55;;;;;;;;;;;;;;;22.29;42.05;102067.47;5047670;28;4181;-80
2022/12/02 12:38:22;;;;;;;;;;;;;;;22.35;42.24;102055.50;5047604;28;4123;-85
2022/12/02 12:40:56;;;;;;;;;;;;;;;22.33;42.84;102061.16;5050415;28;5201;-80
2022/12/02 12:43:23;;;;;;;;;;;;;;;22.31;43.04;102052.38;5047856;28;4221;-87
2022/12/02 12:45:49;;;;;;;;;;;;;;;22.35;43.25;102050.47;5047504;28;4085;-79
2022/12/02 12:48:15;;;;;;;;;;;;;;;22.44;43.06;102048.81;5045047;28;4166;-83
2022/12/02 12:50:42;;;;;;;;;;;;;;;22.39;43.31;102049.97;5043677;28;4311;-81
2022/12/02 12:53:08;;;;;;;;;;;;;;;22.37;43.40;102056.38;5041256;28;4185;-75
2022/12/02 12:55:34;;;;;;;;;;;;;;;22.40;43.80;102048.56;5045676;28;5288;-82
2022/12/02 12:58:01;;;;;;;;;;;;;;;22.43;43.69;102049.47;5046170;28;5377;-80